LLBG/TLV METAR and TAF weather

Enter ICAO airport designator
Station Type Date Time Source
LLBG METAR 2021/04/13 21:20 UTC NOAA

LLBG 132120Z VRB02KT CAVOK 13/08 Q1020 NOSIG


Station Type Date Time Source
LLBG Decoded METAR 2021/04/13 21:20 UTC NOAA

Ben-Gurion International Airport, Israel (LLBG) 32-00N 034-54E 49M
Apr 13, 2021 - 05:20 PM EDT / 2021.04.13 2120 UTC
Wind: Variable at 2 MPH (2 KT):0
Visibility: greater than 7 mile(s):0
Temperature: 55 F (13 C)
Dew Point: 46 F (8 C)
Relative Humidity: 71%
Pressure (altimeter): 30.12 in. Hg (1020 hPa)
ob: LLBG 132120Z VRB02KT CAVOK 13/08 Q1020 NOSIG
cycle: 21

Station Type Date Time Source
LLBG TAF 2021/04/13 18:06 UTC NOAA

TAF TAF LLBG 131702Z 1318/1418 02007KT CAVOK
BECMG 1320/1323 VRB04KT
BECMG 1406/1409 34015KT TX23/1411Z TN09/1403Z

Example: see airport list